Time;durP1;ratioP1;P1;durP2;ratioP2;P2;SDS_P1;SDS_P2;PMS_P1;PMS_P2;Temp;Humidity;BMP_temperature;BMP_pressure;BME280_temperature;BME280_humidity;BME280_pressure;Samples;Min_cycle;Max_cycle;Signal;HPM_P1;HPM_P2
2023/07/17 00:00:12;;;;;;;4.20;2.27;;;;;;;22.09;nan;99678.28;4985546;28;20715;-86
2023/07/17 00:02:38;;;;;;;3.37;1.90;;;;;;;22.08;nan;99684.59;4979665;28;20791;-84
2023/07/17 00:05:04;;;;;;;7.35;2.22;;;;;;;22.08;nan;99684.59;4982536;28;20461;-78
2023/07/17 00:07:30;;;;;;;2.77;2.47;;;;;;;22.09;nan;99683.63;4979703;28;20237;-81
2023/07/17 00:09:56;;;;;;;2.83;2.30;;;;;;;22.12;nan;99688.63;4981869;28;20475;-79
2023/07/17 00:12:21;;;;;;;4.40;2.07;;;;;;;22.11;nan;99694.97;4981582;28;20558;-78
2023/07/17 00:14:47;;;;;;;6.00;2.70;;;;;;;22.06;nan;99686.59;4980720;28;20233;-78
2023/07/17 00:17:14;;;;;;;2.57;2.20;;;;;;;22.01;nan;99694.34;4981539;28;20263;-78
2023/07/17 00:19:40;;;;;;;4.40;2.43;;;;;;;21.99;nan;99694.50;4979266;28;20228;-84
2023/07/17 00:22:06;;;;;;;3.13;2.17;;;;;;;21.98;nan;99700.00;4978310;28;20890;-81
2023/07/17 00:24:32;;;;;;;6.30;3.43;;;;;;;21.93;nan;99689.81;4980717;28;20209;-78
2023/07/17 00:26:57;;;;;;;6.43;3.03;;;;;;;21.88;nan;99689.50;4980662;28;20478;-82
2023/07/17 00:29:25;;;;;;;7.10;3.60;;;;;;;21.85;nan;99679.13;4979374;28;20207;-78
2023/07/17 00:31:52;;;;;;;7.87;2.67;;;;;;;21.85;nan;99685.31;4978315;28;20688;-79
2023/07/17 00:34:18;;;;;;;3.20;2.67;;;;;;;21.89;nan;99685.81;4992341;28;21393;-85
2023/07/17 00:36:44;;;;;;;6.53;2.70;;;;;;;21.91;nan;99688.31;4979148;28;21050;-80
2023/07/17 00:39:10;;;;;;;4.40;3.10;;;;;;;21.94;nan;99688.81;4981431;28;20563;-82
2023/07/17 00:41:35;;;;;;;6.77;3.57;;;;;;;21.93;nan;99686.28;4978122;28;21006;-81
2023/07/17 00:44:01;;;;;;;5.40;3.30;;;;;;;21.88;nan;99687.66;4982151;28;20217;-80
2023/07/17 00:46:26;;;;;;;6.27;2.60;;;;;;;21.83;nan;99676.63;4979607;28;20211;-81
2023/07/17 00:48:54;;;;;;;4.70;2.97;;;;;;;21.85;nan;99684.50;4983241;28;20547;-81
2023/07/17 00:51:19;;;;;;;5.13;3.00;;;;;;;21.86;nan;99686.16;4982207;28;20543;-84
2023/07/17 00:53:46;;;;;;;5.90;3.10;;;;;;;21.86;nan;99683.47;4980347;28;20224;-78
2023/07/17 00:56:12;;;;;;;3.30;2.70;;;;;;;21.88;nan;99693.00;4983886;28;20490;-79
2023/07/17 00:58:37;;;;;;;3.87;2.80;;;;;;;21.89;nan;99691.16;4984620;28;20353;-81
2023/07/17 01:01:03;;;;;;;4.73;2.03;;;;;;;21.90;nan;99692.84;4983904;28;20478;-79
2023/07/17 01:03:30;;;;;;;3.70;2.57;;;;;;;21.92;nan;99692.66;4979307;28;20647;-79
2023/07/17 01:05:59;;;;;;;5.60;3.20;;;;;;;21.92;nan;99695.34;4978664;28;20518;-85
2023/07/17 01:08:24;;;;;;;8.13;2.70;;;;;;;21.90;nan;99700.88;4983877;28;20450;-85
2023/07/17 01:10:50;;;;;;;5.90;2.30;;;;;;;21.89;nan;99701.84;4983893;28;20527;-79
2023/07/17 01:13:16;;;;;;;7.53;4.23;;;;;;;21.89;nan;99696.50;4982657;28;20809;-80
2023/07/17 01:15:42;;;;;;;3.53;3.20;;;;;;;21.90;nan;99698.19;4982420;28;20231;-81
2023/07/17 01:18:07;;;;;;;5.73;3.17;;;;;;;21.92;nan;99703.34;5000785;28;21099;-78
2023/07/17 01:20:34;;;;;;;4.40;3.00;;;;;;;21.94;nan;99704.03;4980579;28;20221;-82
2023/07/17 01:23:03;;;;;;;5.47;3.40;;;;;;;21.93;nan;99702.34;4984616;28;20216;-86
2023/07/17 01:25:29;;;;;;;3.40;2.90;;;;;;;21.92;nan;99698.00;4982035;28;21037;-81
2023/07/17 01:27:55;;;;;;;4.00;2.80;;;;;;;21.91;nan;99699.03;5002274;28;20998;-78
2023/07/17 01:30:20;;;;;;;4.97;3.10;;;;;;;21.86;nan;99692.31;5001355;28;20480;-84
2023/07/17 01:32:46;;;;;;;3.20;2.70;;;;;;;21.84;nan;99690.81;4985592;28;20482;-78
2023/07/17 01:35:11;;;;;;;5.47;3.00;;;;;;;21.81;nan;99693.84;4999062;28;20281;-80
2023/07/17 01:37:38;;;;;;;3.73;2.67;;;;;;;21.77;nan;99706.72;5000073;28;20321;-80
2023/07/17 01:40:05;;;;;;;2.77;2.53;;;;;;;21.76;nan;99705.03;4986447;28;20958;-82
2023/07/17 01:42:31;;;;;;;6.90;3.67;;;;;;;21.78;nan;99710.22;4982969;28;20225;-81
2023/07/17 01:44:56;;;;;;;3.67;2.90;;;;;;;21.75;nan;99711.38;4982151;28;21436;-85
2023/07/17 01:47:21;;;;;;;3.77;3.30;;;;;;;21.71;nan;99709.19;4984603;28;20817;-86
2023/07/17 01:49:47;;;;;;;4.07;3.00;;;;;;;21.63;nan;99705.53;4984376;28;20795;-79
2023/07/17 01:52:12;;;;;;;5.23;2.97;;;;;;;21.57;nan;99716.88;4982392;28;20652;-79
2023/07/17 01:54:38;;;;;;;6.53;3.10;;;;;;;21.51;nan;99730.09;4982662;28;20782;-78
2023/07/17 01:57:03;;;;;;;4.20;3.40;;;;;;;21.46;nan;99722.56;4997512;28;20286;-81
2023/07/17 01:59:29;;;;;;;3.20;2.80;;;;;;;21.49;nan;99718.72;4983361;28;20568;-82
2023/07/17 02:01:54;;;;;;;4.50;2.70;;;;;;;21.51;nan;99719.41;4982470;28;20633;-81
2023/07/17 02:04:20;;;;;;;3.73;3.00;;;;;;;21.49;nan;99714.19;4981854;28;20217;-78
2023/07/17 02:06:45;;;;;;;5.00;2.73;;;;;;;21.43;nan;99715.69;4991338;28;20222;-84
2023/07/17 02:09:10;;;;;;;6.60;3.30;;;;;;;21.34;nan;99718.50;4986695;28;20235;-82
2023/07/17 02:11:36;;;;;;;2.63;2.43;;;;;;;21.25;nan;99717.63;4983272;28;20223;-78
2023/07/17 02:14:02;;;;;;;2.47;2.27;;;;;;;21.23;nan;99716.16;4982396;28;20227;-83
2023/07/17 02:16:28;;;;;;;4.47;2.20;;;;;;;21.18;nan;99716.63;4982118;28;21003;-79
2023/07/17 02:18:53;;;;;;;3.23;2.43;;;;;;;21.16;nan;99724.78;4985147;28;20474;-80
2023/07/17 02:21:19;;;;;;;3.50;2.60;;;;;;;21.14;nan;99723.28;4986563;28;20492;-84
2023/07/17 02:23:45;;;;;;;6.20;3.17;;;;;;;21.10;nan;99714.78;4983667;28;20522;-82
2023/07/17 02:26:11;;;;;;;3.33;2.43;;;;;;;21.07;nan;99715.09;4982830;28;20226;-77
2023/07/17 02:28:37;;;;;;;2.87;2.57;;;;;;;21.10;nan;99712.09;4978074;28;20240;-85
2023/07/17 02:31:02;;;;;;;5.40;2.60;;;;;;;21.14;nan;99708.13;4978522;28;20495;-80
2023/07/17 02:33:29;;;;;;;4.03;2.70;;;;;;;21.20;nan;99717.31;4992571;28;20521;-78
2023/07/17 02:35:54;;;;;;;3.57;2.50;;;;;;;21.26;nan;99715.81;4980849;28;20671;-80
2023/07/17 02:38:20;;;;;;;8.07;3.53;;;;;;;21.27;nan;99723.66;4981739;28;20229;-82
2023/07/17 02:40:48;;;;;;;4.70;3.30;;;;;;;21.29;nan;99713.66;4991953;28;20290;-79
2023/07/17 02:43:16;;;;;;;3.70;2.60;;;;;;;21.30;nan;99719.81;4988748;28;20474;-81
2023/07/17 02:45:46;;;;;;;5.67;2.50;;;;;;;21.34;nan;99721.19;4991552;28;20858;-82
2023/07/17 02:48:14;;;;;;;6.60;3.10;;;;;;;21.38;nan;99726.03;5005586;28;21262;-83
2023/07/17 02:50:40;;;;;;;5.50;3.53;;;;;;;21.40;nan;99729.41;4987520;28;20478;-85
2023/07/17 02:53:06;;;;;;;5.73;2.90;;;;;;;21.42;nan;99722.06;4990909;28;20463;-82
2023/07/17 02:55:32;;;;;;;5.33;2.90;;;;;;;21.48;nan;99733.09;4989601;28;20840;-84
2023/07/17 02:57:58;;;;;;;11.70;4.10;;;;;;;21.49;nan;99732.06;4987703;28;20229;-77
2023/07/17 03:00:23;;;;;;;3.87;2.30;;;;;;;21.50;nan;99736.44;4985493;28;20514;-78
2023/07/17 03:02:49;;;;;;;4.03;3.70;;;;;;;21.50;nan;99741.78;4986536;28;20473;-80
2023/07/17 03:05:20;;;;;;;4.83;2.70;;;;;;;21.52;nan;99745.09;4979071;28;20858;-83
2023/07/17 03:07:46;;;;;;;3.23;2.57;;;;;;;21.50;nan;99739.13;4986444;28;20514;-78
2023/07/17 03:10:13;;;;;;;7.53;3.03;;;;;;;21.44;nan;99740.59;4983479;28;20693;-85
2023/07/17 03:12:38;;;;;;;4.00;2.33;;;;;;;21.41;nan;99751.59;4980139;28;21367;-80
2023/07/17 03:15:05;;;;;;;4.60;2.47;;;;;;;21.40;nan;99747.28;4979601;28;21062;-86
2023/07/17 03:17:31;;;;;;;5.57;2.97;;;;;;;21.38;nan;99746.59;4979067;28;20497;-81
2023/07/17 03:19:57;;;;;;;4.60;3.30;;;;;;;21.35;nan;99749.56;4979962;28;20482;-81
2023/07/17 03:22:23;;;;;;;6.53;3.10;;;;;;;21.34;nan;99751.41;4993081;28;20439;-82
2023/07/17 03:24:49;;;;;;;2.53;2.30;;;;;;;21.34;nan;99762.09;4979876;28;20486;-83
2023/07/17 03:27:15;;;;;;;4.07;2.63;;;;;;;21.35;nan;99757.56;4979087;28;20283;-81
2023/07/17 03:29:41;;;;;;;5.47;3.47;;;;;;;21.35;nan;99758.41;4980138;28;20998;-84
2023/07/17 03:32:08;;;;;;;3.47;2.60;;;;;;;21.34;nan;99755.91;4994627;28;20552;-78
2023/07/17 03:34:34;;;;;;;2.73;2.30;;;;;;;21.31;nan;99761.59;4975231;28;21073;-79
2023/07/17 03:37:00;;;;;;;7.73;3.07;;;;;;;21.30;nan;99766.06;4976615;28;20621;-84
2023/07/17 03:39:25;;;;;;;5.80;3.10;;;;;;;21.31;nan;99758.91;4979213;28;20219;-79
2023/07/17 03:41:51;;;;;;;4.90;2.97;;;;;;;21.35;nan;99768.25;4979439;28;20323;-84
2023/07/17 03:44:16;;;;;;;4.83;2.40;;;;;;;21.40;nan;99766.81;4978053;28;20276;-84
2023/07/17 03:46:42;;;;;;;4.40;2.43;;;;;;;21.43;nan;99763.81;4992019;28;20232;-83
2023/07/17 03:49:07;;;;;;;4.30;2.40;;;;;;;21.46;nan;99769.81;4978049;28;20258;-79
2023/07/17 03:51:32;;;;;;;4.90;3.20;;;;;;;21.46;nan;99767.16;4980212;28;20221;-87
2023/07/17 03:53:58;;;;;;;6.30;3.40;;;;;;;21.46;nan;99770.66;4982882;28;20665;-82
2023/07/17 03:56:25;;;;;;;4.73;2.53;;;;;;;21.47;nan;99772.34;4977285;28;20493;-82
2023/07/17 03:58:50;;;;;;;3.60;2.30;;;;;;;21.48;nan;99767.84;4984309;28;21098;-83
2023/07/17 04:01:16;;;;;;;5.43;3.17;;;;;;;21.49;nan;99759.63;4974786;28;20686;-80
2023/07/17 04:03:44;;;;;;;3.20;2.87;;;;;;;21.51;nan;99762.16;4974385;28;20217;-80
2023/07/17 04:06:10;;;;;;;3.80;2.73;;;;;;;21.53;nan;99768.19;4973377;28;20481;-78
2023/07/17 04:08:37;;;;;;;4.03;2.40;;;;;;;21.55;nan;99769.69;4976510;28;20727;-82
2023/07/17 04:11:02;;;;;;;6.47;3.60;;;;;;;21.57;nan;99770.34;4989449;28;21065;-77
2023/07/17 04:13:27;;;;;;;5.30;3.03;;;;;;;21.58;nan;99772.03;4973456;28;20218;-80
2023/07/17 04:15:53;;;;;;;3.37;2.20;;;;;;;21.60;nan;99771.84;4988238;28;20234;-79
2023/07/17 04:18:19;;;;;;;4.80;2.50;;;;;;;21.62;nan;99775.19;4974105;28;20451;-76
2023/07/17 04:20:44;;;;;;;3.00;2.50;;;;;;;21.66;nan;99776.56;4989399;28;20227;-77
2023/07/17 04:23:12;;;;;;;7.17;2.27;;;;;;;21.70;nan;99772.53;4978650;28;20271;-79
2023/07/17 04:25:42;;;;;;;3.50;2.50;;;;;;;21.72;nan;99777.72;4993603;28;20490;-77
2023/07/17 04:28:08;;;;;;;5.53;2.33;;;;;;;21.72;nan;99775.06;4981686;28;20463;-77
2023/07/17 04:30:37;;;;;;;5.50;3.07;;;;;;;21.72;nan;99775.88;4986662;28;20220;-78
2023/07/17 04:33:04;;;;;;;4.93;2.70;;;;;;;21.73;nan;99780.22;4977425;28;20814;-78
2023/07/17 04:35:39;;;;;;;5.95;2.90;;;;;;;21.71;nan;99784.06;4995608;28;20852;-75
2023/07/17 04:38:08;;;;;;;3.80;3.10;;;;;;;21.68;nan;99781.72;5003672;28;20337;-78
2023/07/17 04:40:34;;;;;;;6.80;2.70;;;;;;;21.64;nan;99784.72;4984022;28;20486;-76
2023/07/17 04:43:01;;;;;;;6.00;3.87;;;;;;;21.61;nan;99784.22;4981373;28;20699;-78
2023/07/17 04:45:27;;;;;;;3.37;2.80;;;;;;;21.62;nan;99783.22;4988412;28;20972;-76
2023/07/17 04:47:54;;;;;;;4.83;2.90;;;;;;;21.63;nan;99790.25;4976030;28;20489;-78
2023/07/17 04:50:27;;;;;;;4.47;2.63;;;;;;;21.63;nan;99792.94;4983509;28;20497;-75
2023/07/17 04:52:56;;;;;;;4.50;2.83;;;;;;;21.61;nan;99792.25;4996589;28;20226;-75
2023/07/17 04:55:23;;;;;;;5.30;3.10;;;;;;;21.60;nan;99790.56;4983911;28;20486;-74
2023/07/17 04:57:50;;;;;;;4.90;3.33;;;;;;;21.55;nan;99799.09;4994072;28;20889;-77
2023/07/17 05:00:19;;;;;;;6.63;2.70;;;;;;;21.55;nan;99792.88;4983910;28;21000;-77
2023/07/17 05:02:45;;;;;;;4.33;2.97;;;;;;;21.71;nan;99800.97;4985124;28;20845;-76
2023/07/17 05:05:12;;;;;;;8.23;3.23;;;;;;;21.89;nan;99803.47;4995589;28;20453;-80
2023/07/17 05:07:40;;;;;;;4.67;3.53;;;;;;;21.93;nan;99806.63;4983238;28;20524;-74
2023/07/17 05:10:08;;;;;;;10.00;3.80;;;;;;;21.84;nan;99803.97;4984876;28;21157;-79
2023/07/17 05:12:38;;;;;;;6.03;3.40;;;;;;;21.84;nan;99808.47;4999331;28;20491;-78
2023/07/17 05:15:04;;;;;;;4.13;2.60;;;;;;;22.12;nan;99802.84;4993816;28;20851;-76
2023/07/17 05:17:30;;;;;;;3.90;3.17;;;;;;;22.33;nan;99802.31;4976875;28;21205;-78
2023/07/17 05:19:55;;;;;;;5.53;3.70;;;;;;;22.52;nan;99810.00;4976163;28;20577;-78
2023/07/17 05:22:21;;;;;;;2.97;2.67;;;;;;;22.84;nan;99798.38;4977592;28;20221;-80
2023/07/17 05:24:48;;;;;;;4.33;3.30;;;;;;;23.03;nan;99807.06;4976080;28;20311;-75
2023/07/17 05:27:13;;;;;;;6.87;2.67;;;;;;;23.09;nan;99807.22;4976037;28;21158;-76
2023/07/17 05:29:38;;;;;;;5.67;3.20;;;;;;;23.09;nan;99807.22;4976677;28;20230;-76
2023/07/17 05:32:13;;;;;;;3.23;2.77;;;;;;;23.10;nan;99806.19;4978111;28;20224;-75
2023/07/17 05:34:42;;;;;;;4.63;2.80;;;;;;;23.28;nan;99805.97;4977601;28;20748;-75
2023/07/17 05:37:08;;;;;;;4.23;2.80;;;;;;;23.37;nan;99806.75;4999608;28;20487;-75
2023/07/17 05:39:42;;;;;;;5.43;2.93;;;;;;;;;;4989911;28;21006;-77
2023/07/17 05:42:15;;;;;;;4.90;3.17;;;;;;;24.34;nan;99809.75;4998031;28;20484;-79
2023/07/17 05:44:42;;;;;;;5.70;3.20;;;;;;;24.97;nan;99806.78;4976945;28;20483;-78
2023/07/17 05:47:08;;;;;;;2.87;2.57;;;;;;;25.63;nan;99813.03;4980045;28;20470;-78
2023/07/17 05:49:34;;;;;;;5.27;2.73;;;;;;;26.20;nan;99809.47;4976849;28;20510;-76
2023/07/17 05:52:01;;;;;;;3.50;2.87;;;;;;;26.72;nan;99803.84;4991445;28;20716;-77
2023/07/17 05:54:31;;;;;;;4.07;2.33;;;;;;;27.12;nan;99807.59;4974887;28;20474;-76
2023/07/17 05:56:58;;;;;;;4.33;2.90;;;;;;;27.58;nan;99805.09;4977078;28;20581;-76
2023/07/17 05:59:24;;;;;;;9.97;2.80;;;;;;;28.03;nan;99810.00;4975718;28;20474;-77
2023/07/17 06:02:02;;;;;;;10.50;3.77;;;;;;;28.37;nan;99791.91;4976245;28;20459;-76
2023/07/17 06:04:29;;;;;;;5.30;2.20;;;;;;;28.62;nan;99792.09;4976742;28;20481;-77
2023/07/17 06:06:55;;;;;;;3.70;2.70;;;;;;;28.90;nan;99797.25;4977727;28;20471;-76
2023/07/17 06:09:21;;;;;;;8.00;3.50;;;;;;;29.11;nan;99793.44;4976845;28;20214;-77
2023/07/17 06:11:47;;;;;;;4.90;2.37;;;;;;;29.22;nan;99791.94;4976959;28;20463;-77
2023/07/17 06:14:18;;;;;;;4.53;2.60;;;;;;;29.35;nan;99791.88;4978443;28;20817;-76
2023/07/17 06:16:50;;;;;;;3.40;2.30;;;;;;;29.45;nan;99796.84;4977794;28;20484;-77
2023/07/17 06:19:21;;;;;;;2.43;1.97;;;;;;;29.62;nan;99808.81;4977150;28;20471;-77
2023/07/17 06:21:51;;;;;;;4.03;2.30;;;;;;;29.88;nan;99801.63;4979154;28;20560;-77
2023/07/17 06:24:20;;;;;;;2.60;2.40;;;;;;;30.03;nan;99806.72;4994927;28;20499;-78
2023/07/17 06:26:49;;;;;;;4.23;3.13;;;;;;;30.26;nan;99803.44;4981139;28;20672;-77
2023/07/17 06:29:15;;;;;;;3.83;2.43;;;;;;;30.44;nan;99811.63;4986312;28;20478;-75
2023/07/17 06:31:41;;;;;;;7.00;2.60;;;;;;;30.47;nan;99815.78;4978017;28;20479;-77
2023/07/17 06:34:07;;;;;;;3.70;2.37;;;;;;;30.38;nan;99809.78;4981595;28;20513;-77
2023/07/17 06:36:52;;;;;;;3.23;2.33;;;;;;;30.29;nan;99808.41;4980948;28;20228;-75
2023/07/17 06:39:17;;;;;;;3.00;2.70;;;;;;;30.31;nan;99811.75;4975561;28;20470;-77
2023/07/17 06:41:43;;;;;;;2.33;2.00;;;;;;;30.35;nan;99818.34;4980206;28;20239;-75
2023/07/17 06:44:08;;;;;;;5.00;2.67;;;;;;;30.47;nan;99822.00;4978444;28;20332;-73
2023/07/17 06:50:31;;;;;;;3.27;1.97;;;;;;;31.02;nan;99819.38;4951362;28;20245;-78
2023/07/17 06:52:56;;;;;;;5.00;2.17;;;;;;;31.35;nan;99817.31;4974894;28;20611;-75
2023/07/17 06:55:22;;;;;;;2.43;2.23;;;;;;;31.42;nan;99820.81;4974903;28;21161;-74
2023/07/17 06:57:47;;;;;;;3.43;2.60;;;;;;;31.29;nan;99819.88;4976372;28;20223;-78
2023/07/17 07:00:16;;;;;;;4.53;2.60;;;;;;;31.36;nan;99819.00;4975719;28;20216;-76
2023/07/17 07:03:39;;;;;;;2.63;2.43;;;;;;;31.42;nan;99821.63;4981889;28;20219;-74
2023/07/17 07:06:04;;;;;;;3.65;2.80;;;;;;;31.70;nan;99826.50;4956748;28;20521;-78
2023/07/17 07:08:31;;;;;;;3.00;2.23;;;;;;;31.83;nan;99830.88;4973480;28;20780;-80
2023/07/17 07:10:59;;;;;;;3.00;2.70;;;;;;;31.78;nan;99833.47;4969445;28;20688;-78
2023/07/17 07:13:25;;;;;;;2.70;2.10;;;;;;;31.68;nan;99834.03;4971729;28;20474;-76
2023/07/17 07:15:51;;;;;;;2.70;2.20;;;;;;;31.55;nan;99834.22;4969532;28;20530;-81
2023/07/17 07:18:18;;;;;;;4.70;2.27;;;;;;;31.53;nan;99837.16;4971847;28;20545;-78
2023/07/17 07:20:44;;;;;;;5.10;2.40;;;;;;;31.42;nan;99837.94;4951002;28;20471;-78
2023/07/17 07:23:09;;;;;;;3.20;2.40;;;;;;;31.40;nan;99841.94;4970187;28;20475;-80
2023/07/17 07:25:35;;;;;;;3.13;2.40;;;;;;;31.50;nan;99839.50;4972740;28;21091;-79
2023/07/17 07:28:00;;;;;;;6.00;2.47;;;;;;;31.57;nan;99839.41;4970466;28;20246;-78
2023/07/17 07:30:29;;;;;;;3.40;2.20;;;;;;;31.66;nan;99843.47;4970654;28;20734;-80
2023/07/17 07:32:54;;;;;;;3.83;2.67;;;;;;;31.76;nan;99846.47;4972435;28;20853;-80
2023/07/17 07:35:20;;;;;;;4.78;2.90;;;;;;;31.89;nan;99845.44;4970823;28;20980;-77
2023/07/17 07:37:46;;;;;;;4.13;2.73;;;;;;;31.99;nan;99848.44;4970455;28;20765;-79
2023/07/17 07:40:12;;;;;;;6.47;3.47;;;;;;;31.87;nan;99842.97;4969130;28;20539;-80
2023/07/17 07:42:44;;;;;;;3.10;2.80;;;;;;;31.81;nan;99837.59;4970516;28;20212;-78
2023/07/17 07:45:11;;;;;;;4.77;3.10;;;;;;;31.97;nan;99839.69;4969241;28;20502;-79
2023/07/17 07:47:37;;;;;;;2.80;2.47;;;;;;;32.08;nan;99844.34;4970087;28;20489;-79
2023/07/17 07:50:03;;;;;;;4.50;3.23;;;;;;;32.25;nan;99841.78;4968926;28;20568;-78
2023/07/17 07:52:29;;;;;;;5.40;3.50;;;;;;;32.36;nan;99846.41;4972617;28;20472;-79
2023/07/17 07:54:54;;;;;;;6.27;2.77;;;;;;;32.51;nan;99843.22;4971593;28;21076;-78
2023/07/17 07:57:20;;;;;;;4.20;3.00;;;;;;;32.66;nan;99841.97;4971325;28;20683;-78
2023/07/17 07:59:46;;;;;;;2.73;2.37;;;;;;;32.73;nan;99850.81;4968866;28;20583;-78
2023/07/17 08:02:12;;;;;;;2.73;2.07;;;;;;;32.91;nan;99852.56;4970897;28;20730;-80
2023/07/17 08:04:37;;;;;;;5.47;2.90;;;;;;;33.14;nan;99844.41;4967752;28;20224;-77
2023/07/17 08:07:03;;;;;;;4.80;3.33;;;;;;;33.29;nan;99854.78;4970796;28;20435;-79
2023/07/17 08:09:29;;;;;;;3.90;3.27;;;;;;;32.87;nan;99863.13;4970540;28;20215;-79
2023/07/17 08:11:54;;;;;;;3.83;2.77;;;;;;;32.29;nan;99861.16;4970893;28;20572;-79
2023/07/17 08:14:23;;;;;;;7.70;2.90;;;;;;;32.05;nan;99866.53;4969728;28;21271;-80
2023/07/17 08:16:49;;;;;;;6.17;3.40;;;;;;;32.10;nan;99865.84;4969807;28;20253;-78
2023/07/17 08:19:17;;;;;;;5.13;3.27;;;;;;;32.20;nan;99855.25;4969887;28;20462;-78
2023/07/17 08:21:43;;;;;;;4.93;3.30;;;;;;;32.32;nan;99866.13;4968489;28;20694;-78
2023/07/17 08:24:09;;;;;;;6.20;3.37;;;;;;;32.29;nan;99867.41;4971690;28;20835;-78
2023/07/17 08:26:36;;;;;;;4.97;3.90;;;;;;;32.27;nan;99874.16;4970733;28;20460;-78
2023/07/17 08:29:02;;;;;;;5.70;3.20;;;;;;;32.04;nan;99861.34;4969690;28;20879;-80
2023/07/17 08:31:28;;;;;;;4.10;2.90;;;;;;;31.71;nan;99857.19;4971969;28;20476;-79
2023/07/17 08:33:53;;;;;;;4.30;3.20;;;;;;;31.32;nan;99862.03;4969791;28;20552;-78
2023/07/17 08:36:19;;;;;;;5.50;4.47;;;;;;;30.85;nan;99873.41;4967265;28;20476;-79
2023/07/17 08:38:46;;;;;;;6.40;3.87;;;;;;;30.45;nan;99872.06;4970331;28;20296;-79
2023/07/17 08:41:13;;;;;;;4.90;4.10;;;;;;;30.25;nan;99870.34;4968749;28;20489;-77
2023/07/17 08:43:39;;;;;;;4.13;2.80;;;;;;;30.09;nan;99868.97;4970297;28;20468;-78
2023/07/17 08:46:05;;;;;;;4.43;3.50;;;;;;;30.12;nan;99868.53;4968929;28;20466;-78
2023/07/17 08:48:31;;;;;;;7.73;3.90;;;;;;;30.29;nan;99866.16;4975537;28;20502;-76
2023/07/17 08:50:58;;;;;;;5.30;3.43;;;;;;;30.47;nan;99862.69;4996496;28;20824;-78
2023/07/17 08:53:27;;;;;;;3.70;3.00;;;;;;;30.67;nan;99869.78;4995753;28;20207;-76
2023/07/17 08:55:55;;;;;;;4.20;3.53;;;;;;;30.66;nan;99868.97;4994096;28;20498;-76
2023/07/17 08:58:22;;;;;;;5.53;3.87;;;;;;;30.73;nan;99869.75;4993932;28;20483;-76
2023/07/17 09:00:50;;;;;;;4.33;3.57;;;;;;;30.73;nan;99864.31;4995832;28;20461;-76
2023/07/17 09:03:17;;;;;;;5.40;3.60;;;;;;;30.74;nan;99860.56;4994677;28;20480;-76
2023/07/17 09:05:43;;;;;;;4.00;3.17;;;;;;;30.89;nan;99857.50;4994948;28;20462;-76
2023/07/17 09:08:09;;;;;;;6.73;4.87;;;;;;;31.02;nan;99851.09;4997070;28;20486;-76
2023/07/17 09:10:36;;;;;;;5.33;3.80;;;;;;;31.21;nan;99843.81;4997033;28;20454;-76
2023/07/17 09:13:02;;;;;;;6.03;3.83;;;;;;;31.20;nan;99853.84;4999652;28;20484;-76
2023/07/17 09:15:29;;;;;;;5.13;3.63;;;;;;;31.09;nan;99855.41;4999141;28;20488;-76
2023/07/17 09:17:55;;;;;;;4.70;3.63;;;;;;;31.04;nan;99859.88;4998406;28;20485;-76
2023/07/17 09:20:21;;;;;;;8.10;4.53;;;;;;;31.19;nan;99856.75;4997442;28;20477;-76
2023/07/17 09:22:48;;;;;;;7.27;3.90;;;;;;;31.18;nan;99855.94;5000573;28;20215;-76
2023/07/17 09:25:15;;;;;;;3.97;3.60;;;;;;;31.18;nan;99847.78;4998734;28;20613;-76
2023/07/17 09:27:46;;;;;;;5.93;3.70;;;;;;;31.24;nan;99844.16;4997765;28;20500;-76
2023/07/17 09:30:17;;;;;;;8.23;3.87;;;;;;;31.22;nan;99845.47;4994801;28;20503;-76
2023/07/17 09:32:44;;;;;;;4.60;3.70;;;;;;;31.27;nan;99842.88;4997254;28;20481;-77
2023/07/17 09:35:11;;;;;;;4.70;3.93;;;;;;;31.38;nan;99847.59;4992067;28;20879;-77
2023/07/17 09:37:39;;;;;;;4.90;3.33;;;;;;;31.45;nan;99847.50;4999148;28;20546;-77
2023/07/17 09:40:12;;;;;;;7.83;4.17;;;;;;;31.48;nan;99845.16;4995628;28;20565;-76
2023/07/17 09:42:40;;;;;;;5.33;3.77;;;;;;;31.52;nan;99840.94;4998551;28;20973;-76
2023/07/17 09:45:06;;;;;;;4.70;4.20;;;;;;;31.47;nan;99843.50;4995339;28;20473;-76
2023/07/17 09:47:31;;;;;;;3.13;2.77;;;;;;;31.48;nan;99845.16;4997523;28;20597;-77
2023/07/17 09:49:58;;;;;;;6.50;3.57;;;;;;;31.57;nan;99850.25;4973482;28;20483;-76
2023/07/17 09:52:25;;;;;;;5.37;3.67;;;;;;;31.55;nan;99838.81;4968002;28;20223;-77
2023/07/17 09:54:51;;;;;;;6.57;3.63;;;;;;;31.54;nan;99837.97;4972626;28;20505;-77
2023/07/17 09:57:30;;;;;;;6.20;3.63;;;;;;;31.49;nan;99835.97;4970338;28;20897;-76
2023/07/17 09:59:58;;;;;;;4.80;3.97;;;;;;;31.49;nan;99827.81;4974138;28;20576;-77
2023/07/17 10:02:32;;;;;;;4.97;3.87;;;;;;;31.41;nan;99830.84;4975810;28;21093;-76
2023/07/17 10:05:00;;;;;;;6.23;4.17;;;;;;;31.23;nan;99833.56;4972604;28;20794;-76
2023/07/17 10:07:26;;;;;;;6.77;4.70;;;;;;;31.16;nan;99830.91;4974996;28;21014;-76
2023/07/17 10:09:54;;;;;;;6.57;3.87;;;;;;;31.17;nan;99829.03;4973350;28;20469;-76
2023/07/17 10:12:19;;;;;;;4.93;3.70;;;;;;;31.24;nan;99837.91;4973647;28;21027;-76
2023/07/17 10:14:48;;;;;;;5.37;3.80;;;;;;;31.24;nan;99832.47;4974076;28;20553;-76
2023/07/17 10:17:29;;;;;;;4.90;4.40;;;;;;;31.20;nan;99828.59;4973247;28;20302;-76
2023/07/17 10:19:57;;;;;;;6.60;3.87;;;;;;;31.18;nan;99836.13;4970842;28;20881;-76
2023/07/17 10:22:27;;;;;;;7.10;3.93;;;;;;;31.00;nan;99835.06;4970354;28;21199;-78
2023/07/17 10:24:52;;;;;;;5.07;3.97;;;;;;;30.78;nan;99829.19;4972297;28;20488;-79
2023/07/17 10:27:39;;;;;;;8.10;4.27;;;;;;;30.76;nan;99830.47;4970861;28;20947;-76
2023/07/17 10:30:23;;;;;;;4.83;4.40;;;;;;;30.88;nan;99826.03;4972557;28;20219;-75
2023/07/17 10:33:13;;;;;;;9.00;4.30;;;;;;;31.19;nan;99829.63;4979901;28;20916;-79
2023/07/17 10:35:44;;;;;;;9.83;4.37;;;;;;;31.43;nan;99827.88;4970650;28;20486;-77
2023/07/17 10:38:11;;;;;;;3.87;3.50;;;;;;;31.45;nan;99829.31;4973166;28;20474;-78
2023/07/17 10:40:36;;;;;;;5.53;3.53;;;;;;;31.53;nan;99815.44;4971973;28;20493;-76
2023/07/17 10:43:16;;;;;;;6.00;4.00;;;;;;;31.59;nan;99821.00;4972492;28;20938;-76
2023/07/17 10:45:42;;;;;;;3.77;3.10;;;;;;;31.67;nan;99818.78;4969578;28;20235;-75
2023/07/17 10:48:08;;;;;;;3.07;2.60;;;;;;;31.81;nan;99822.16;4972499;28;20987;-76
2023/07/17 10:50:34;;;;;;;6.40;5.07;;;;;;;31.76;nan;99824.75;4971782;28;20492;-77
2023/07/17 10:53:05;;;;;;;5.10;3.83;;;;;;;31.74;nan;99816.00;4976375;28;20225;-78
2023/07/17 10:55:32;;;;;;;5.50;4.67;;;;;;;31.74;nan;99816.00;4977259;28;20491;-76
2023/07/17 10:57:59;;;;;;;6.73;3.33;;;;;;;31.74;nan;99814.09;4979095;28;21276;-78
2023/07/17 11:00:25;;;;;;;5.83;3.63;;;;;;;31.77;nan;99815.53;4976357;28;20467;-78
2023/07/17 11:02:51;;;;;;;5.00;3.77;;;;;;;31.81;nan;99808.59;4974622;28;20463;-78
2023/07/17 11:05:17;;;;;;;9.67;4.90;;;;;;;31.90;nan;99807.19;4979438;28;20901;-79
2023/07/17 11:07:42;;;;;;;4.27;3.87;;;;;;;32.02;nan;99799.06;4977382;28;20247;-77
2023/07/17 11:10:11;;;;;;;8.43;3.80;;;;;;;32.08;nan;99806.31;4976037;28;20381;-77
2023/07/17 11:12:40;;;;;;;4.80;3.43;;;;;;;31.99;nan;99790.56;4978184;28;20692;-78
2023/07/17 11:15:15;;;;;;;5.87;3.97;;;;;;;31.96;nan;99791.88;4982817;28;20882;-76
2023/07/17 11:17:42;;;;;;;7.37;4.60;;;;;;;31.85;nan;99790.75;4977957;28;20499;-77
2023/07/17 11:20:08;;;;;;;5.50;3.60;;;;;;;31.74;nan;99794.25;4979963;28;20473;-76
2023/07/17 11:22:34;;;;;;;7.10;4.27;;;;;;;31.69;nan;99796.84;4977398;28;20221;-79
2023/07/17 11:25:00;;;;;;;7.10;3.90;;;;;;;31.52;nan;99797.50;4980101;28;20473;-75
2023/07/17 11:27:25;;;;;;;4.20;3.73;;;;;;;31.39;nan;99805.81;4983986;28;20288;-75
2023/07/17 11:29:51;;;;;;;5.73;4.10;;;;;;;31.23;nan;99799.09;4983319;28;20242;-76
2023/07/17 11:32:20;;;;;;;4.57;3.47;;;;;;;31.26;nan;99789.66;4978110;28;20220;-78
2023/07/17 11:34:52;;;;;;;5.10;3.90;;;;;;;31.34;nan;99802.09;4979879;28;20314;-76
2023/07/17 11:37:35;;;;;;;9.10;3.50;;;;;;;31.39;nan;99789.53;4985258;28;20470;-78
2023/07/17 11:40:08;;;;;;;5.93;4.10;;;;;;;31.41;nan;99790.13;4975509;28;20481;-77
2023/07/17 11:42:55;;;;;;;4.07;3.60;;;;;;;31.24;nan;99789.88;4977013;28;20457;-76
2023/07/17 11:45:23;;;;;;;7.00;4.10;;;;;;;31.20;nan;99783.28;4955747;28;20478;-76
2023/07/17 11:47:48;;;;;;;5.43;4.03;;;;;;;31.18;nan;99784.56;5009572;23;22005;-80
2023/07/17 11:50:18;;;;;;;7.37;4.67;;;;;;;31.16;nan;99792.91;4978667;28;20473;-79
2023/07/17 11:52:47;;;;;;;3.40;2.77;;;;;;;31.16;nan;99776.63;4986276;28;20227;-79
2023/07/17 11:55:12;;;;;;;7.53;3.67;;;;;;;31.12;nan;99774.63;4990497;28;20558;-81